sensor_id;sensor_type;location;lat;lon;timestamp;pressure;altitude;pressure_sealevel;temperature
76713;BMP280;65640;43.154;25.658;2024-02-16T00:00:34;101447.22;;;8.03
76713;BMP280;65640;43.154;25.658;2024-02-16T00:03:00;101440.75;;;7.94
76713;BMP280;65640;43.154;25.658;2024-02-16T00:05:25;101441.09;;;7.98
76713;BMP280;65640;43.154;25.658;2024-02-16T00:07:50;101440.97;;;7.93
76713;BMP280;65640;43.154;25.658;2024-02-16T00:10:16;101440.63;;;8.01
76713;BMP280;65640;43.154;25.658;2024-02-16T00:12:44;101443.94;;;7.96
76713;BMP280;65640;43.154;25.658;2024-02-16T00:15:09;101444.03;;;7.90
76713;BMP280;65640;43.154;25.658;2024-02-16T00:17:36;101443.13;;;7.84
76713;BMP280;65640;43.154;25.658;2024-02-16T00:20:02;101440.31;;;7.86
76713;BMP280;65640;43.154;25.658;2024-02-16T00:22:28;101443.91;;;7.85
76713;BMP280;65640;43.154;25.658;2024-02-16T00:24:53;101445.94;;;7.83
76713;BMP280;65640;43.154;25.658;2024-02-16T00:27:19;101445.28;;;7.87
76713;BMP280;65640;43.154;25.658;2024-02-16T00:29:44;101448.44;;;7.89
76713;BMP280;65640;43.154;25.658;2024-02-16T00:32:11;101445.75;;;7.96
76713;BMP280;65640;43.154;25.658;2024-02-16T00:34:38;101449.72;;;8.10
76713;BMP280;65640;43.154;25.658;2024-02-16T00:37:05;101445.75;;;7.96
76713;BMP280;65640;43.154;25.658;2024-02-16T00:39:35;101448.78;;;7.93
76713;BMP280;65640;43.154;25.658;2024-02-16T00:42:00;101448.78;;;7.93
76713;BMP280;65640;43.154;25.658;2024-02-16T00:44:25;101445.78;;;8.07
76713;BMP280;65640;43.154;25.658;2024-02-16T00:46:51;101448.25;;;8.14
76713;BMP280;65640;43.154;25.658;2024-02-16T00:49:16;101447.69;;;8.12
76713;BMP280;65640;43.154;25.658;2024-02-16T00:51:41;101451.44;;;8.04
76713;BMP280;65640;43.154;25.658;2024-02-16T00:54:07;101448.94;;;7.98
76713;BMP280;65640;43.154;25.658;2024-02-16T00:56:32;101445.84;;;8.01
76713;BMP280;65640;43.154;25.658;2024-02-16T00:58:58;101449.03;;;8.03
76713;BMP280;65640;43.154;25.658;2024-02-16T01:01:23;101444.25;;;8.00
76713;BMP280;65640;43.154;25.658;2024-02-16T01:03:51;101440.97;;;7.93
76713;BMP280;65640;43.154;25.658;2024-02-16T01:06:17;101448.78;;;7.93
76713;BMP280;65640;43.154;25.658;2024-02-16T01:08:42;101447.66;;;7.89
76713;BMP280;65640;43.154;25.658;2024-02-16T01:11:08;101446.84;;;7.88
76713;BMP280;65640;43.154;25.658;2024-02-16T01:13:52;101445.50;;;7.86
76713;BMP280;65640;43.154;25.658;2024-02-16T01:16:17;101444.94;;;7.84
76713;BMP280;65640;43.154;25.658;2024-02-16T01:18:44;101443.06;;;7.73
76713;BMP280;65640;43.154;25.658;2024-02-16T01:21:09;101437.88;;;7.73
76713;BMP280;65640;43.154;25.658;2024-02-16T01:23:35;101440.94;;;7.81
76713;BMP280;65640;43.154;25.658;2024-02-16T01:26:00;101432.91;;;7.83
76713;BMP280;65640;43.154;25.658;2024-02-16T01:28:25;101433.50;;;7.85
76713;BMP280;65640;43.154;25.658;2024-02-16T01:30:51;101426.53;;;7.79
76713;BMP280;65640;43.154;25.658;2024-02-16T01:33:16;101426.00;;;7.77
76713;BMP280;65640;43.154;25.658;2024-02-16T01:35:41;101421.25;;;7.85
76713;BMP280;65640;43.154;25.658;2024-02-16T01:38:07;101429.41;;;7.89
76713;BMP280;65640;43.154;25.658;2024-02-16T01:40:32;101425.25;;;7.88
76713;BMP280;65640;43.154;25.658;2024-02-16T01:42:58;101428.50;;;7.83
76713;BMP280;65640;43.154;25.658;2024-02-16T01:45:23;101429.97;;;7.91
76713;BMP280;65640;43.154;25.658;2024-02-16T01:47:53;101426.00;;;8.00
76713;BMP280;65640;43.154;25.658;2024-02-16T01:50:19;101427.81;;;7.99
76713;BMP280;65640;43.154;25.658;2024-02-16T01:52:46;101427.84;;;7.88
76713;BMP280;65640;43.154;25.658;2024-02-16T01:55:12;101428.28;;;7.85
76713;BMP280;65640;43.154;25.658;2024-02-16T01:57:42;101423.66;;;7.87
76713;BMP280;65640;43.154;25.658;2024-02-16T02:00:08;101428.63;;;8.00
76713;BMP280;65640;43.154;25.658;2024-02-16T02:02:35;101425.00;;;8.01
76713;BMP280;65640;43.154;25.658;2024-02-16T02:05:00;101418.88;;;7.95
76713;BMP280;65640;43.154;25.658;2024-02-16T02:07:26;101425.53;;;7.91
76713;BMP280;65640;43.154;25.658;2024-02-16T02:09:53;101427.28;;;7.86
76713;BMP280;65640;43.154;25.658;2024-02-16T02:12:18;101430.31;;;7.83
76713;BMP280;65640;43.154;25.658;2024-02-16T02:14:44;101425.88;;;7.83
76713;BMP280;65640;43.154;25.658;2024-02-16T02:17:09;101429.97;;;7.91
76713;BMP280;65640;43.154;25.658;2024-02-16T02:19:35;101427.34;;;7.91
76713;BMP280;65640;43.154;25.658;2024-02-16T02:22:00;101428.72;;;7.93
76713;BMP280;65640;43.154;25.658;2024-02-16T02:24:26;101428.63;;;8.00
76713;BMP280;65640;43.154;25.658;2024-02-16T02:26:51;101430.56;;;8.04
76713;BMP280;65640;43.154;25.658;2024-02-16T02:29:17;101434.66;;;8.12
76713;BMP280;65640;43.154;25.658;2024-02-16T02:31:42;101435.00;;;8.04
76713;BMP280;65640;43.154;25.658;2024-02-16T02:34:08;101443.25;;;8.01
76713;BMP280;65640;43.154;25.658;2024-02-16T02:36:33;101440.94;;;7.81
76713;BMP280;65640;43.154;25.658;2024-02-16T02:38:59;101444.03;;;7.90
76713;BMP280;65640;43.154;25.658;2024-02-16T02:41:24;101443.56;;;7.93
76713;BMP280;65640;43.154;25.658;2024-02-16T02:43:51;101444.25;;;8.00
76713;BMP280;65640;43.154;25.658;2024-02-16T02:46:18;101451.38;;;7.93
76713;BMP280;65640;43.154;25.658;2024-02-16T02:48:46;101443.56;;;7.93
76713;BMP280;65640;43.154;25.658;2024-02-16T02:51:11;101451.81;;;7.78
76713;BMP280;65640;43.154;25.658;2024-02-16T02:53:37;101457.47;;;7.75
76713;BMP280;65640;43.154;25.658;2024-02-16T02:56:03;101457.91;;;7.72
76713;BMP280;65640;43.154;25.658;2024-02-16T02:58:29;101455.88;;;7.62
76713;BMP280;65640;43.154;25.658;2024-02-16T03:00:54;101469.78;;;7.68
76713;BMP280;65640;43.154;25.658;2024-02-16T03:03:21;101467.72;;;7.58
76713;BMP280;65640;43.154;25.658;2024-02-16T03:05:46;101468.25;;;7.79
76713;BMP280;65640;43.154;25.658;2024-02-16T03:08:12;101466.81;;;7.94
76713;BMP280;65640;43.154;25.658;2024-02-16T03:10:37;101464.19;;;7.83
76713;BMP280;65640;43.154;25.658;2024-02-16T03:13:04;101465.53;;;7.74
76713;BMP280;65640;43.154;25.658;2024-02-16T03:15:29;101469.03;;;7.79
76713;BMP280;65640;43.154;25.658;2024-02-16T03:17:55;101474.34;;;7.73
76713;BMP280;65640;43.154;25.658;2024-02-16T03:20:20;101468.25;;;7.79
76713;BMP280;65640;43.154;25.658;2024-02-16T03:22:46;101476.78;;;7.86
76713;BMP280;65640;43.154;25.658;2024-02-16T03:25:12;101479.03;;;7.82
76713;BMP280;65640;43.154;25.658;2024-02-16T03:27:38;101480.72;;;7.77
76713;BMP280;65640;43.154;25.658;2024-02-16T03:30:05;101484.78;;;7.73
76713;BMP280;65640;43.154;25.658;2024-02-16T03:32:31;101481.50;;;7.65
76713;BMP280;65640;43.154;25.658;2024-02-16T03:34:57;101479.19;;;7.69
76713;BMP280;65640;43.154;25.658;2024-02-16T03:37:22;101483.34;;;7.77
76713;BMP280;65640;43.154;25.658;2024-02-16T03:39:48;101487.97;;;7.75
76713;BMP280;65640;43.154;25.658;2024-02-16T03:42:13;101489.56;;;7.76
76713;BMP280;65640;43.154;25.658;2024-02-16T03:44:38;101499.84;;;7.71
76713;BMP280;65640;43.154;25.658;2024-02-16T03:47:04;101493.59;;;7.72
76713;BMP280;65640;43.154;25.658;2024-02-16T03:49:29;101489.63;;;7.69
76713;BMP280;65640;43.154;25.658;2024-02-16T03:51:54;101491.78;;;7.60
76713;BMP280;65640;43.154;25.658;2024-02-16T03:54:20;101498.56;;;7.61
76713;BMP280;65640;43.154;25.658;2024-02-16T03:56:45;101495.97;;;7.61
76713;BMP280;65640;43.154;25.658;2024-02-16T03:59:11;101497.41;;;7.57
76713;BMP280;65640;43.154;25.658;2024-02-16T04:01:36;101494.16;;;7.62
76713;BMP280;65640;43.154;25.658;2024-02-16T04:04:01;101496.56;;;7.63
76713;BMP280;65640;43.154;25.658;2024-02-16T04:06:28;101484.69;;;7.79
76713;BMP280;65640;43.154;25.658;2024-02-16T04:08:54;101487.22;;;7.86
76713;BMP280;65640;43.154;25.658;2024-02-16T04:11:19;101487.81;;;7.88
76713;BMP280;65640;43.154;25.658;2024-02-16T04:13:44;101488.81;;;7.68
76713;BMP280;65640;43.154;25.658;2024-02-16T04:16:10;101486.56;;;7.60
76713;BMP280;65640;43.154;25.658;2024-02-16T04:18:35;101496.09;;;7.66
76713;BMP280;65640;43.154;25.658;2024-02-16T04:21:00;101488.53;;;7.65
76713;BMP280;65640;43.154;25.658;2024-02-16T04:23:26;101493.16;;;7.63
76713;BMP280;65640;43.154;25.658;2024-02-16T04:25:51;101495.38;;;7.59
76713;BMP280;65640;43.154;25.658;2024-02-16T04:28:17;101501.19;;;7.61
76713;BMP280;65640;43.154;25.658;2024-02-16T04:30:44;101502.03;;;7.55
76713;BMP280;65640;43.154;25.658;2024-02-16T04:33:09;101505.81;;;7.59
76713;BMP280;65640;43.154;25.658;2024-02-16T04:35:34;101502.78;;;7.62
76713;BMP280;65640;43.154;25.658;2024-02-16T04:38:00;101502.81;;;7.56
76713;BMP280;65640;43.154;25.658;2024-02-16T04:40:25;101510.00;;;7.60
76713;BMP280;65640;43.154;25.658;2024-02-16T04:42:51;101507.81;;;7.57
76713;BMP280;65640;43.154;25.658;2024-02-16T04:45:17;101515.84;;;7.74
76713;BMP280;65640;43.154;25.658;2024-02-16T04:47:42;101514.78;;;7.63
76713;BMP280;65640;43.154;25.658;2024-02-16T04:50:08;101516.66;;;7.56
76713;BMP280;65640;43.154;25.658;2024-02-16T04:52:37;101515.66;;;7.57
76713;BMP280;65640;43.154;25.658;2024-02-16T04:55:04;101515.50;;;7.52
76713;BMP280;65640;43.154;25.658;2024-02-16T04:57:31;101510.31;;;7.52
76713;BMP280;65640;43.154;25.658;2024-02-16T04:59:57;101512.69;;;7.54
76713;BMP280;65640;43.154;25.658;2024-02-16T05:02:22;101506.97;;;7.63
76713;BMP280;65640;43.154;25.658;2024-02-16T05:04:47;101510.66;;;7.56
76713;BMP280;65640;43.154;25.658;2024-02-16T05:07:13;101506.09;;;7.51
76713;BMP280;65640;43.154;25.658;2024-02-16T05:09:38;101509.13;;;7.48
76713;BMP280;65640;43.154;25.658;2024-02-16T05:12:05;101517.47;;;7.57
76713;BMP280;65640;43.154;25.658;2024-02-16T05:14:30;101522.66;;;7.57
76713;BMP280;65640;43.154;25.658;2024-02-16T05:16:55;101523.53;;;7.51
76713;BMP280;65640;43.154;25.658;2024-02-16T05:19:21;101521.66;;;7.58
76713;BMP280;65640;43.154;25.658;2024-02-16T05:21:46;101531.28;;;7.57
76713;BMP280;65640;43.154;25.658;2024-02-16T05:24:12;101533.38;;;7.49
76713;BMP280;65640;43.154;25.658;2024-02-16T05:26:37;101542.09;;;7.43
76713;BMP280;65640;43.154;25.658;2024-02-16T05:29:03;101538.69;;;7.42
76713;BMP280;65640;43.154;25.658;2024-02-16T05:31:28;101549.22;;;7.47
76713;BMP280;65640;43.154;25.658;2024-02-16T05:33:54;101535.53;;;7.70
76713;BMP280;65640;43.154;25.658;2024-02-16T05:36:20;101545.91;;;7.58
76713;BMP280;65640;43.154;25.658;2024-02-16T05:38:47;101542.88;;;7.61
76713;BMP280;65640;43.154;25.658;2024-02-16T05:41:12;101553.97;;;7.68
76713;BMP280;65640;43.154;25.658;2024-02-16T05:43:38;101547.69;;;7.76
76713;BMP280;65640;43.154;25.658;2024-02-16T05:46:04;101546.81;;;7.82
76713;BMP280;65640;43.154;25.658;2024-02-16T05:48:35;101550.00;;;7.84
76713;BMP280;65640;43.154;25.658;2024-02-16T05:51:05;101557.41;;;7.87
76713;BMP280;65640;43.154;25.658;2024-02-16T05:53:30;101563.75;;;7.73
76713;BMP280;65640;43.154;25.658;2024-02-16T05:55:56;101555.78;;;7.68
76713;BMP280;65640;43.154;25.658;2024-02-16T05:58:21;101563.59;;;7.68
76713;BMP280;65640;43.154;25.658;2024-02-16T06:00:48;101564.56;;;7.74
76713;BMP280;65640;43.154;25.658;2024-02-16T06:03:14;101570.56;;;7.74
76713;BMP280;65640;43.154;25.658;2024-02-16T06:05:39;101578.31;;;7.81
76713;BMP280;65640;43.154;25.658;2024-02-16T06:08:11;101574.88;;;7.98
76713;BMP280;65640;43.154;25.658;2024-02-16T06:10:37;101576.38;;;8.06
76713;BMP280;65640;43.154;25.658;2024-02-16T06:13:02;101568.56;;;8.06
76713;BMP280;65640;43.154;25.658;2024-02-16T06:15:28;101574.44;;;8.13
76713;BMP280;65640;43.154;25.658;2024-02-16T06:17:53;101568.81;;;8.16
76713;BMP280;65640;43.154;25.658;2024-02-16T06:20:19;101579.00;;;8.06
76713;BMP280;65640;43.154;25.658;2024-02-16T06:22:44;101573.13;;;8.22
76713;BMP280;65640;43.154;25.658;2024-02-16T06:25:10;101570.97;;;8.19
76713;BMP280;65640;43.154;25.658;2024-02-16T06:27:35;101575.31;;;8.25
76713;BMP280;65640;43.154;25.658;2024-02-16T06:30:02;101578.59;;;8.32
76713;BMP280;65640;43.154;25.658;2024-02-16T06:32:29;101573.97;;;8.34
76713;BMP280;65640;43.154;25.658;2024-02-16T06:34:55;101577.72;;;8.38
76713;BMP280;65640;43.154;25.658;2024-02-16T06:37:20;101577.50;;;8.40
76713;BMP280;65640;43.154;25.658;2024-02-16T06:39:46;101577.75;;;8.50
76713;BMP280;65640;43.154;25.658;2024-02-16T06:42:11;101580.69;;;8.54
76713;BMP280;65640;43.154;25.658;2024-02-16T06:44:38;101570.94;;;8.49
76713;BMP280;65640;43.154;25.658;2024-02-16T06:47:04;101576.97;;;8.50
76713;BMP280;65640;43.154;25.658;2024-02-16T06:49:30;101566.16;;;8.58
76713;BMP280;65640;43.154;25.658;2024-02-16T06:51:55;101575.91;;;8.62
76713;BMP280;65640;43.154;25.658;2024-02-16T06:54:20;101571.38;;;8.58
76713;BMP280;65640;43.154;25.658;2024-02-16T06:56:46;101575.47;;;8.65
76713;BMP280;65640;43.154;25.658;2024-02-16T06:59:11;101575.25;;;8.67
76713;BMP280;65640;43.154;25.658;2024-02-16T07:01:37;101581.16;;;8.74
76713;BMP280;65640;43.154;25.658;2024-02-16T07:04:02;101582.31;;;8.78
76713;BMP280;65640;43.154;25.658;2024-02-16T07:06:28;101576.41;;;8.71
76713;BMP280;65640;43.154;25.658;2024-02-16T07:08:53;101577.44;;;8.70
76713;BMP280;65640;43.154;25.658;2024-02-16T07:11:19;101577.44;;;8.70
76713;BMP280;65640;43.154;25.658;2024-02-16T07:13:47;101587.53;;;8.78
76713;BMP280;65640;43.154;25.658;2024-02-16T07:16:12;101583.78;;;8.85
76713;BMP280;65640;43.154;25.658;2024-02-16T07:18:37;101583.13;;;8.90
76713;BMP280;65640;43.154;25.658;2024-02-16T07:21:03;101584.00;;;8.84
76713;BMP280;65640;43.154;25.658;2024-02-16T07:23:29;101588.34;;;8.90
76713;BMP280;65640;43.154;25.658;2024-02-16T07:25:55;101583.34;;;9.00
76713;BMP280;65640;43.154;25.658;2024-02-16T07:28:25;101586.84;;;9.06
76713;BMP280;65640;43.154;25.658;2024-02-16T07:30:51;101590.03;;;8.96
76713;BMP280;65640;43.154;25.658;2024-02-16T07:33:17;101588.78;;;8.99
76713;BMP280;65640;43.154;25.658;2024-02-16T07:35:43;101587.78;;;9.00
76713;BMP280;65640;43.154;25.658;2024-02-16T07:38:09;101583.31;;;9.12
76713;BMP280;65640;43.154;25.658;2024-02-16T07:40:35;101596.38;;;9.23
76713;BMP280;65640;43.154;25.658;2024-02-16T07:43:00;101593.66;;;9.18
76713;BMP280;65640;43.154;25.658;2024-02-16T07:45:26;101585.94;;;9.23
76713;BMP280;65640;43.154;25.658;2024-02-16T07:47:51;101591.69;;;9.25
76713;BMP280;65640;43.154;25.658;2024-02-16T07:50:21;101598.25;;;9.40
76713;BMP280;65640;43.154;25.658;2024-02-16T07:52:48;101601.44;;;9.42
76713;BMP280;65640;43.154;25.658;2024-02-16T07:55:14;101597.66;;;9.49
76713;BMP280;65640;43.154;25.658;2024-02-16T07:57:39;101592.22;;;9.51
76713;BMP280;65640;43.154;25.658;2024-02-16T08:00:05;101602.78;;;9.56
76713;BMP280;65640;43.154;25.658;2024-02-16T08:02:31;101605.50;;;9.61
76713;BMP280;65640;43.154;25.658;2024-02-16T08:04:56;101603.81;;;9.55
76713;BMP280;65640;43.154;25.658;2024-02-16T08:07:22;101612.31;;;9.50
76713;BMP280;65640;43.154;25.658;2024-02-16T08:09:47;101607.56;;;9.47
76713;BMP280;65640;43.154;25.658;2024-02-16T08:12:13;101605.41;;;9.56
76713;BMP280;65640;43.154;25.658;2024-02-16T08:14:39;101614.81;;;9.57
76713;BMP280;65640;43.154;25.658;2024-02-16T08:17:08;101617.53;;;9.62
76713;BMP280;65640;43.154;25.658;2024-02-16T08:19:35;101618.53;;;9.73
76713;BMP280;65640;43.154;25.658;2024-02-16T08:22:02;101615.78;;;9.79
76713;BMP280;65640;43.154;25.658;2024-02-16T08:24:31;101617.69;;;9.84
76713;BMP280;65640;43.154;25.658;2024-02-16T08:26:56;101619.41;;;9.90
76713;BMP280;65640;43.154;25.658;2024-02-16T08:29:22;101613.91;;;9.91
76713;BMP280;65640;43.154;25.658;2024-02-16T08:31:49;101628.50;;;9.87
76713;BMP280;65640;43.154;25.658;2024-02-16T08:34:15;101623.41;;;9.81
76713;BMP280;65640;43.154;25.658;2024-02-16T08:36:44;101621.66;;;9.86
76713;BMP280;65640;43.154;25.658;2024-02-16T08:39:09;101621.09;;;9.84
76713;BMP280;65640;43.154;25.658;2024-02-16T08:41:37;101620.91;;;10.02
76713;BMP280;65640;43.154;25.658;2024-02-16T08:44:02;101620.00;;;10.09
76713;BMP280;65640;43.154;25.658;2024-02-16T08:46:28;101617.06;;;10.22
76713;BMP280;65640;43.154;25.658;2024-02-16T08:48:54;101621.50;;;10.21
76713;BMP280;65640;43.154;25.658;2024-02-16T08:51:20;101624.47;;;10.25
76713;BMP280;65640;43.154;25.658;2024-02-16T08:53:45;101622.72;;;10.30
76713;BMP280;65640;43.154;25.658;2024-02-16T08:56:10;101622.56;;;10.37
76713;BMP280;65640;43.154;25.658;2024-02-16T08:58:38;101621.69;;;10.48
76713;BMP280;65640;43.154;25.658;2024-02-16T09:01:04;101625.34;;;10.47
76713;BMP280;65640;43.154;25.658;2024-02-16T09:03:30;101622.72;;;10.47
76713;BMP280;65640;43.154;25.658;2024-02-16T09:06:02;101622.94;;;10.45
76713;BMP280;65640;43.154;25.658;2024-02-16T09:08:27;101620.66;;;10.49
76713;BMP280;65640;43.154;25.658;2024-02-16T09:10:55;101632.00;;;10.55
76713;BMP280;65640;43.154;25.658;2024-02-16T09:13:21;101626.31;;;10.58
76713;BMP280;65640;43.154;25.658;2024-02-16T09:15:46;101630.66;;;10.52
76713;BMP280;65640;43.154;25.658;2024-02-16T09:18:13;101628.19;;;10.45
76713;BMP280;65640;43.154;25.658;2024-02-16T09:20:39;101624.78;;;10.45
76713;BMP280;65640;43.154;25.658;2024-02-16T09:23:04;101627.94;;;10.64
76713;BMP280;65640;43.154;25.658;2024-02-16T09:25:30;101629.84;;;10.68
76713;BMP280;65640;43.154;25.658;2024-02-16T09:27:55;101638.44;;;10.64
76713;BMP280;65640;43.154;25.658;2024-02-16T09:30:20;101641.13;;;10.69
76713;BMP280;65640;43.154;25.658;2024-02-16T09:32:46;101633.97;;;10.64
76713;BMP280;65640;43.154;25.658;2024-02-16T09:35:12;101642.25;;;10.56
76713;BMP280;65640;43.154;25.658;2024-02-16T09:37:39;101637.03;;;10.56
76713;BMP280;65640;43.154;25.658;2024-02-16T09:40:05;101639.88;;;10.55
76713;BMP280;65640;43.154;25.658;2024-02-16T09:42:32;101642.56;;;10.60
76713;BMP280;65640;43.154;25.658;2024-02-16T09:45:00;101630.34;;;10.65
76713;BMP280;65640;43.154;25.658;2024-02-16T09:47:26;101631.78;;;10.56
76713;BMP280;65640;43.154;25.658;2024-02-16T09:49:54;101635.47;;;10.43
76713;BMP280;65640;43.154;25.658;2024-02-16T09:52:19;101641.13;;;10.35
76713;BMP280;65640;43.154;25.658;2024-02-16T09:54:45;101635.72;;;10.42
76713;BMP280;65640;43.154;25.658;2024-02-16T09:57:10;101633.66;;;10.44
76713;BMP280;65640;43.154;25.658;2024-02-16T09:59:36;101638.72;;;10.51
76713;BMP280;65640;43.154;25.658;2024-02-16T10:02:02;101634.63;;;10.55
76713;BMP280;65640;43.154;25.658;2024-02-16T10:04:28;101635.09;;;10.68
76713;BMP280;65640;43.154;25.658;2024-02-16T10:06:54;101633.25;;;10.85
76713;BMP280;65640;43.154;25.658;2024-02-16T10:09:26;101623.31;;;10.87
76713;BMP280;65640;43.154;25.658;2024-02-16T10:11:54;101623.78;;;10.84
76713;BMP280;65640;43.154;25.658;2024-02-16T10:14:20;101621.50;;;10.88
76713;BMP280;65640;43.154;25.658;2024-02-16T10:16:47;101620.13;;;11.02
76713;BMP280;65640;43.154;25.658;2024-02-16T10:19:13;101620.78;;;10.93
76713;BMP280;65640;43.154;25.658;2024-02-16T10:21:39;101615.94;;;10.84
76713;BMP280;65640;43.154;25.658;2024-02-16T10:24:09;101619.75;;;10.94
76713;BMP280;65640;43.154;25.658;2024-02-16T10:26:35;101612.03;;;11.04
76713;BMP280;65640;43.154;25.658;2024-02-16T10:29:07;101606.66;;;11.15
76713;BMP280;65640;43.154;25.658;2024-02-16T10:31:33;101598.63;;;11.00
76713;BMP280;65640;43.154;25.658;2024-02-16T10:33:59;101596.22;;;10.99
76713;BMP280;65640;43.154;25.658;2024-02-16T10:36:27;101599.59;;;10.94
76713;BMP280;65640;43.154;25.658;2024-02-16T10:38:55;101596.56;;;11.02
76713;BMP280;65640;43.154;25.658;2024-02-16T10:41:28;101600.22;;;11.01
76713;BMP280;65640;43.154;25.658;2024-02-16T10:43:56;101599.97;;;11.03
76713;BMP280;65640;43.154;25.658;2024-02-16T10:46:24;101592.09;;;10.81
76713;BMP280;65640;43.154;25.658;2024-02-16T10:48:50;101588.34;;;10.77
76713;BMP280;65640;43.154;25.658;2024-02-16T10:51:19;101583.69;;;10.84
76713;BMP280;65640;43.154;25.658;2024-02-16T10:53:47;101593.59;;;10.60
76713;BMP280;65640;43.154;25.658;2024-02-16T10:56:13;101591.53;;;10.79
76713;BMP280;65640;43.154;25.658;2024-02-16T10:58:39;101590.16;;;10.76
76713;BMP280;65640;43.154;25.658;2024-02-16T11:01:09;101581.59;;;10.81
76713;BMP280;65640;43.154;25.658;2024-02-16T11:03:38;101586.66;;;10.87
76713;BMP280;65640;43.154;25.658;2024-02-16T11:06:16;101576.97;;;10.88
76713;BMP280;65640;43.154;25.658;2024-02-16T11:08:42;101576.63;;;11.01
76713;BMP280;65640;43.154;25.658;2024-02-16T11:11:07;101577.75;;;11.05
76713;BMP280;65640;43.154;25.658;2024-02-16T11:13:35;101572.97;;;11.02
76713;BMP280;65640;43.154;25.658;2024-02-16T11:18:28;101567.56;;;10.92
76713;BMP280;65640;43.154;25.658;2024-02-16T11:20:54;101566.13;;;11.01
76713;BMP280;65640;43.154;25.658;2024-02-16T11:23:24;101569.31;;;11.03
76713;BMP280;65640;43.154;25.658;2024-02-16T11:25:50;101563.06;;;11.04
76713;BMP280;65640;43.154;25.658;2024-02-16T11:28:18;101563.63;;;11.11
76713;BMP280;65640;43.154;25.658;2024-02-16T11:30:44;101573.75;;;11.03
76713;BMP280;65640;43.154;25.658;2024-02-16T11:33:12;101561.47;;;11.08
76713;BMP280;65640;43.154;25.658;2024-02-16T11:35:38;101562.16;;;10.99
76713;BMP280;65640;43.154;25.658;2024-02-16T11:38:07;101565.75;;;10.93
76713;BMP280;65640;43.154;25.658;2024-02-16T11:40:32;101558.50;;;11.00
76713;BMP280;65640;43.154;25.658;2024-02-16T11:42:59;101554.66;;;11.07
76713;BMP280;65640;43.154;25.658;2024-02-16T11:45:25;101553.28;;;11.00
76713;BMP280;65640;43.154;25.658;2024-02-16T11:47:51;101546.09;;;11.12
76713;BMP280;65640;43.154;25.658;2024-02-16T11:50:17;101536.78;;;11.21
76713;BMP280;65640;43.154;25.658;2024-02-16T11:52:43;101542.72;;;11.16
76713;BMP280;65640;43.154;25.658;2024-02-16T11:55:08;101541.41;;;11.14
76713;BMP280;65640;43.154;25.658;2024-02-16T11:57:35;101542.72;;;10.95
76713;BMP280;65640;43.154;25.658;2024-02-16T12:00:02;101551.53;;;11.05
76713;BMP280;65640;43.154;25.658;2024-02-16T12:02:34;101540.97;;;11.22
76713;BMP280;65640;43.154;25.658;2024-02-16T12:05:00;101540.09;;;11.16
76713;BMP280;65640;43.154;25.658;2024-02-16T12:07:27;101541.81;;;11.06
76713;BMP280;65640;43.154;25.658;2024-02-16T12:09:59;101542.06;;;10.82
76713;BMP280;65640;43.154;25.658;2024-02-16T12:12:25;101535.50;;;10.85
76713;BMP280;65640;43.154;25.658;2024-02-16T12:14:52;101539.88;;;10.96
76713;BMP280;65640;43.154;25.658;2024-02-16T12:17:18;101536.41;;;11.12
76713;BMP280;65640;43.154;25.658;2024-02-16T12:19:47;101538.13;;;11.07
76713;BMP280;65640;43.154;25.658;2024-02-16T12:22:17;101523.06;;;11.14
76713;BMP280;65640;43.154;25.658;2024-02-16T12:24:47;101532.41;;;11.10
76713;BMP280;65640;43.154;25.658;2024-02-16T12:27:12;101530.50;;;11.22
76713;BMP280;65640;43.154;25.658;2024-02-16T12:29:38;101528.13;;;11.20
76713;BMP280;65640;43.154;25.658;2024-02-16T12:32:05;101531.03;;;11.24
76713;BMP280;65640;43.154;25.658;2024-02-16T12:34:30;101538.41;;;11.27
76713;BMP280;65640;43.154;25.658;2024-02-16T12:36:57;101527.59;;;11.23
76713;BMP280;65640;43.154;25.658;2024-02-16T12:39:23;101529.53;;;11.33
76713;BMP280;65640;43.154;25.658;2024-02-16T12:41:48;101527.16;;;11.31
76713;BMP280;65640;43.154;25.658;2024-02-16T12:44:14;101531.69;;;11.36
76713;BMP280;65640;43.154;25.658;2024-02-16T12:46:40;101526.50;;;11.41
76713;BMP280;65640;43.154;25.658;2024-02-16T12:49:06;101526.72;;;11.40
76713;BMP280;65640;43.154;25.658;2024-02-16T12:51:32;101523.88;;;11.41
76713;BMP280;65640;43.154;25.658;2024-02-16T12:53:57;101528.09;;;11.42
76713;BMP280;65640;43.154;25.658;2024-02-16T12:56:22;101529.72;;;11.53
76713;BMP280;65640;43.154;25.658;2024-02-16T12:58:48;101530.88;;;11.62
76713;BMP280;65640;43.154;25.658;2024-02-16T13:01:13;101534.25;;;11.58
76713;BMP280;65640;43.154;25.658;2024-02-16T13:03:39;101528.94;;;11.48
76713;BMP280;65640;43.154;25.658;2024-02-16T13:06:04;101529.34;;;11.40
76713;BMP280;65640;43.154;25.658;2024-02-16T13:08:30;101527.47;;;11.35
76713;BMP280;65640;43.154;25.658;2024-02-16T13:10:56;101528.94;;;11.48
76713;BMP280;65640;43.154;25.658;2024-02-16T13:13:22;101523.25;;;11.34
76713;BMP280;65640;43.154;25.658;2024-02-16T13:15:48;101525.84;;;11.29
76713;BMP280;65640;43.154;25.658;2024-02-16T13:18:14;101522.88;;;11.20
76713;BMP280;65640;43.154;25.658;2024-02-16T13:20:39;101520.50;;;11.19
76713;BMP280;65640;43.154;25.658;2024-02-16T13:23:05;101519.03;;;11.28
76713;BMP280;65640;43.154;25.658;2024-02-16T13:25:30;101518.06;;;11.39
76713;BMP280;65640;43.154;25.658;2024-02-16T13:27:56;101514.81;;;11.27
76713;BMP280;65640;43.154;25.658;2024-02-16T13:30:21;101508.53;;;11.28
76713;BMP280;65640;43.154;25.658;2024-02-16T13:32:48;101519.03;;;11.28
76713;BMP280;65640;43.154;25.658;2024-02-16T13:35:13;101510.72;;;11.36
76713;BMP280;65640;43.154;25.658;2024-02-16T13:37:39;101511.19;;;11.33
76713;BMP280;65640;43.154;25.658;2024-02-16T13:40:07;101515.25;;;11.46
76713;BMP280;65640;43.154;25.658;2024-02-16T13:42:38;101514.53;;;11.50
76713;BMP280;65640;43.154;25.658;2024-02-16T13:45:03;101516.75;;;11.37
76713;BMP280;65640;43.154;25.658;2024-02-16T13:47:29;101513.41;;;11.19